Time;durP1;ratioP1;P1;durP2;ratioP2;P2;SDS_P1;SDS_P2;PMS_P1;PMS_P2;Temp;Humidity;BMP_temperature;BMP_pressure;BME280_temperature;BME280_humidity;BME280_pressure;Samples;Min_cycle;Max_cycle;Signal;HPM_P1;HPM_P2
2021/07/01 00:00:54;;;;;;;16.00;11.80;;;13.20;99.90;;;;;;5125709;27;20229;-75
2021/07/01 00:03:21;;;;;;;16.10;11.97;;;13.10;99.90;;;;;;5125031;27;20622;-75
2021/07/01 00:05:49;;;;;;;15.83;11.37;;;13.00;99.90;;;;;;5121596;28;20292;-75
2021/07/01 00:08:17;;;;;;;17.50;12.00;;;12.90;99.90;;;;;;5118005;28;20241;-75
2021/07/01 00:10:44;;;;;;;15.13;11.70;;;12.90;99.90;;;;;;5102058;28;20572;-75
2021/07/01 00:13:11;;;;;;;17.30;12.17;;;12.80;99.90;;;;;;5114736;28;20233;-75
2021/07/01 00:15:38;;;;;;;16.93;11.87;;;12.80;99.90;;;;;;5097480;28;20290;-75
2021/07/01 00:18:05;;;;;;;16.73;12.53;;;12.70;99.90;;;;;;5094026;28;20605;-76
2021/07/01 00:20:32;;;;;;;20.63;14.17;;;12.70;99.90;;;;;;5094043;28;21019;-76
2021/07/01 00:23:00;;;;;;;20.27;14.40;;;12.80;99.90;;;;;;5101524;28;20225;-75
2021/07/01 00:25:28;;;;;;;22.07;14.80;;;12.80;99.90;;;;;;5096888;28;20336;-75
2021/07/01 00:27:55;;;;;;;24.20;15.53;;;12.80;99.90;;;;;;5102786;28;20233;-75
2021/07/01 00:30:23;;;;;;;19.57;14.57;;;12.70;99.90;;;;;;5094520;28;20279;-75
2021/07/01 00:32:51;;;;;;;24.30;16.27;;;12.60;99.90;;;;;;5094209;28;20226;-75
2021/07/01 00:35:19;;;;;;;25.40;15.87;;;12.60;99.90;;;;;;5102549;28;20246;-76
2021/07/01 00:37:46;;;;;;;22.10;15.90;;;12.60;99.90;;;;;;5100752;28;20281;-75
2021/07/01 00:40:15;;;;;;;21.97;14.33;;;12.50;99.90;;;;;;5106602;28;20230;-75
2021/07/01 00:42:44;;;;;;;19.97;13.67;;;12.50;99.90;;;;;;5100654;28;20267;-75
2021/07/01 00:45:12;;;;;;;17.80;12.47;;;12.50;99.90;;;;;;5093177;28;20209;-76
2021/07/01 00:47:39;;;;;;;18.53;12.50;;;12.40;99.90;;;;;;5093864;28;20286;-76
2021/07/01 00:50:08;;;;;;;18.33;12.27;;;12.30;99.90;;;;;;5096427;28;20233;-76
2021/07/01 00:52:36;;;;;;;16.20;11.67;;;12.30;99.90;;;;;;5114450;28;20197;-75
2021/07/01 00:55:05;;;;;;;18.97;12.30;;;12.30;99.90;;;;;;5113989;28;20240;-75
2021/07/01 00:57:33;;;;;;;16.10;12.23;;;12.30;99.90;;;;;;5106470;28;20313;-75
2021/07/01 01:00:02;;;;;;;15.53;12.17;;;12.30;99.90;;;;;;5113322;28;20229;-76
2021/07/01 01:02:29;;;;;;;16.33;11.77;;;12.30;99.90;;;;;;5093533;28;20256;-76
2021/07/01 01:04:56;;;;;;;15.40;12.20;;;12.20;99.90;;;;;;5114130;28;20237;-75
2021/07/01 01:07:23;;;;;;;17.23;12.03;;;12.20;99.90;;;;;;5113238;28;20688;-75
2021/07/01 01:09:50;;;;;;;17.87;12.20;;;12.30;99.90;;;;;;5105396;28;20274;-75
2021/07/01 01:12:17;;;;;;;15.50;12.07;;;12.30;99.90;;;;;;5092658;28;20233;-75
2021/07/01 01:14:44;;;;;;;20.27;12.83;;;12.30;99.90;;;;;;5095309;28;20285;-75
2021/07/01 01:17:13;;;;;;;19.77;13.57;;;12.30;99.90;;;;;;5104058;28;20285;-75
2021/07/01 01:19:39;;;;;;;18.87;13.63;;;12.40;99.90;;;;;;5113079;28;20241;-75
2021/07/01 01:22:08;;;;;;;22.20;14.07;;;12.40;99.90;;;;;;5108920;28;20300;-75
2021/07/01 01:24:35;;;;;;;24.07;16.13;;;12.40;99.90;;;;;;5094614;28;20232;-75
2021/07/01 01:27:02;;;;;;;21.93;15.33;;;12.40;99.90;;;;;;5101962;28;20230;-76
2021/07/01 01:29:29;;;;;;;20.90;14.37;;;12.40;99.90;;;;;;5111619;28;20720;-75
2021/07/01 01:31:56;;;;;;;22.93;14.70;;;12.30;99.90;;;;;;5105027;28;20190;-76
2021/07/01 01:34:23;;;;;;;15.77;12.37;;;12.20;99.90;;;;;;5113107;28;20236;-76
2021/07/01 01:36:50;;;;;;;17.30;11.67;;;12.20;99.90;;;;;;5113067;28;20201;-76
2021/07/01 01:39:21;;;;;;;20.80;13.47;;;12.20;99.90;;;;;;5112241;28;20313;-75
2021/07/01 01:41:48;;;;;;;19.13;13.50;;;12.20;99.90;;;;;;5093653;28;20285;-75
2021/07/01 01:44:15;;;;;;;22.10;14.53;;;12.10;99.90;;;;;;5093861;28;20289;-75
2021/07/01 01:46:42;;;;;;;22.63;15.87;;;12.10;99.90;;;;;;5093422;28;20285;-75
2021/07/01 01:49:10;;;;;;;22.13;15.70;;;12.10;99.90;;;;;;5092725;28;20202;-75
2021/07/01 01:51:38;;;;;;;13.37;10.73;;;12.00;99.90;;;;;;5104353;28;20229;-75
2021/07/01 01:54:06;;;;;;;14.20;10.47;;;11.90;99.90;;;;;;5112860;28;20229;-76
2021/07/01 01:56:45;;;;;;;14.60;11.20;;;11.90;99.90;;;;;;5110353;28;20197;-75
2021/07/01 01:59:13;;;;;;;18.63;13.20;;;11.70;99.90;;;;;;5092205;28;20225;-75
2021/07/01 02:01:40;;;;;;;16.90;12.70;;;11.80;99.90;;;;;;5091931;28;20221;-75
2021/07/01 02:04:07;;;;;;;17.13;13.23;;;11.70;99.90;;;;;;5095375;28;20201;-76
2021/07/01 02:06:34;;;;;;;18.43;13.20;;;11.80;99.90;;;;;;5100485;28;20294;-75
2021/07/01 02:09:02;;;;;;;19.87;13.90;;;11.70;99.90;;;;;;5094211;28;20277;-76
2021/07/01 02:11:29;;;;;;;22.97;14.90;;;11.80;99.90;;;;;;5102785;28;20198;-75
2021/07/01 02:13:57;;;;;;;22.73;15.43;;;11.80;99.90;;;;;;5110575;28;20236;-75
2021/07/01 02:16:24;;;;;;;23.63;15.30;;;11.90;99.90;;;;;;5092262;28;20230;-75
2021/07/01 02:18:51;;;;;;;22.33;14.77;;;11.80;99.90;;;;;;5101625;28;20245;-75
2021/07/01 02:21:19;;;;;;;19.43;13.83;;;11.80;99.90;;;;;;5097491;28;20297;-75
2021/07/01 02:23:46;;;;;;;23.63;13.83;;;11.80;99.90;;;;;;5097667;28;20277;-76
2021/07/01 02:26:13;;;;;;;18.37;14.00;;;11.70;99.90;;;;;;5090679;28;20202;-75
2021/07/01 02:28:41;;;;;;;20.80;14.27;;;11.60;99.90;;;;;;5099387;28;20201;-75
2021/07/01 02:31:09;;;;;;;22.70;14.23;;;11.60;99.90;;;;;;5111194;28;20228;-75
2021/07/01 02:33:36;;;;;;;19.57;14.10;;;11.60;99.90;;;;;;5112295;28;20233;-76
2021/07/01 02:36:03;;;;;;;17.17;12.83;;;11.50;99.90;;;;;;5108556;28;20233;-75
2021/07/01 02:38:30;;;;;;;17.10;12.53;;;11.50;99.90;;;;;;5100339;28;20221;-75
2021/07/01 02:40:57;;;;;;;20.73;14.57;;;11.50;99.90;;;;;;5110271;28;20254;-76
2021/07/01 02:43:24;;;;;;;21.70;13.80;;;11.50;99.90;;;;;;5099628;28;20706;-75
2021/07/01 02:45:51;;;;;;;22.07;14.70;;;11.50;99.90;;;;;;5104724;28;20236;-75
2021/07/01 02:48:19;;;;;;;20.57;14.47;;;11.50;99.90;;;;;;5106108;28;20310;-75
2021/07/01 02:50:46;;;;;;;22.20;14.13;;;11.40;99.90;;;;;;5091890;28;20230;-75
2021/07/01 02:53:13;;;;;;;20.70;13.67;;;11.40;99.90;;;;;;5102958;28;20841;-75
2021/07/01 02:55:40;;;;;;;23.17;12.43;;;11.40;99.90;;;;;;5111908;28;20288;-75
2021/07/01 02:58:06;;;;;;;16.30;11.63;;;11.30;99.90;;;;;;5097979;28;20257;-75
2021/07/01 03:00:33;;;;;;;17.63;12.03;;;11.20;99.90;;;;;;5091937;28;20261;-75
2021/07/01 03:03:00;;;;;;;19.27;11.03;;;11.10;99.90;;;;;;5111299;28;20229;-76
2021/07/01 03:05:29;;;;;;;19.10;11.40;;;11.00;99.90;;;;;;5111341;28;20241;-75
2021/07/01 03:07:55;;;;;;;17.30;11.03;;;11.00;99.90;;;;;;5106018;28;20199;-75
2021/07/01 03:10:23;;;;;;;17.13;11.73;;;11.00;99.90;;;;;;5109662;28;20193;-75
2021/07/01 03:12:49;;;;;;;20.73;12.40;;;11.00;99.90;;;;;;5111427;28;20205;-75
2021/07/01 03:15:17;;;;;;;21.67;12.50;;;11.00;99.90;;;;;;5104901;28;20233;-75
2021/07/01 03:17:44;;;;;;;22.87;12.17;;;10.90;99.90;;;;;;5091411;28;20300;-75
2021/07/01 03:20:11;;;;;;;20.17;12.70;;;10.90;99.90;;;;;;5104495;28;20246;-75
2021/07/01 03:22:39;;;;;;;23.10;13.87;;;10.90;99.90;;;;;;5094671;28;20589;-76
2021/07/01 03:25:07;;;;;;;24.60;15.60;;;10.90;99.90;;;;;;5111291;28;20240;-75
2021/07/01 03:27:34;;;;;;;24.23;16.50;;;10.80;99.90;;;;;;5106841;28;20286;-75
2021/07/01 03:30:01;;;;;;;26.70;15.77;;;10.70;99.90;;;;;;5110216;28;20251;-75
2021/07/01 03:32:28;;;;;;;23.93;15.73;;;10.70;99.90;;;;;;5100991;28;20686;-75
2021/07/01 03:34:55;;;;;;;23.50;15.33;;;10.70;99.90;;;;;;5110248;28;20254;-75
2021/07/01 03:37:22;;;;;;;22.83;15.03;;;10.70;99.90;;;;;;5110358;28;20225;-75
2021/07/01 03:39:51;;;;;;;23.47;14.30;;;10.70;99.90;;;;;;5094731;28;20643;-75
2021/07/01 03:42:20;;;;;;;21.37;14.37;;;10.60;99.90;;;;;;5102690;28;20229;-76
2021/07/01 03:44:47;;;;;;;21.60;14.63;;;10.60;99.90;;;;;;5112976;28;20244;-75
2021/07/01 03:47:14;;;;;;;22.90;14.77;;;10.60;99.90;;;;;;5108203;28;20282;-75
2021/07/01 03:49:42;;;;;;;21.07;15.23;;;10.60;99.90;;;;;;5115120;28;20280;-76
2021/07/01 03:52:09;;;;;;;18.40;12.67;;;10.70;99.90;;;;;;5101176;28;20225;-75
2021/07/01 03:54:36;;;;;;;18.70;12.47;;;10.60;99.90;;;;;;5094588;28;20304;-76
2021/07/01 03:57:05;;;;;;;17.93;12.27;;;10.50;99.90;;;;;;5094883;28;20233;-75
2021/07/01 03:59:32;;;;;;;17.33;12.63;;;10.50;99.90;;;;;;5095817;28;20316;-75
2021/07/01 04:01:59;;;;;;;16.80;12.73;;;10.50;99.90;;;;;;5109052;28;20240;-75
2021/07/01 04:04:26;;;;;;;17.60;12.43;;;10.60;99.90;;;;;;5113775;28;20197;-75
2021/07/01 04:06:53;;;;;;;21.07;12.50;;;10.60;99.90;;;;;;5094454;28;20240;-75
2021/07/01 04:09:20;;;;;;;15.10;12.10;;;10.50;99.90;;;;;;5113201;28;20274;-76
2021/07/01 04:11:47;;;;;;;15.97;11.60;;;10.50;99.90;;;;;;5100810;28;20745;-75
2021/07/01 04:14:17;;;;;;;15.20;11.43;;;10.40;99.90;;;;;;5099094;28;20233;-75
2021/07/01 04:16:45;;;;;;;13.23;10.97;;;10.50;99.90;;;;;;5095468;28;20198;-75
2021/07/01 04:19:13;;;;;;;14.13;10.83;;;10.50;99.90;;;;;;5110081;28;20225;-76
2021/07/01 04:21:40;;;;;;;15.30;10.13;;;10.40;99.90;;;;;;5102232;28;20391;-75
2021/07/01 04:24:07;;;;;;;14.17;9.90;;;10.40;99.90;;;;;;5110695;28;20277;-74
2021/07/01 04:26:35;;;;;;;16.23;10.87;;;10.40;99.90;;;;;;5113761;28;20278;-75
2021/07/01 04:29:02;;;;;;;12.27;9.30;;;10.40;99.90;;;;;;5114632;28;20213;-75
2021/07/01 04:31:31;;;;;;;15.83;10.13;;;10.30;99.90;;;;;;5114080;28;20235;-75
2021/07/01 04:33:57;;;;;;;16.27;9.73;;;10.40;99.90;;;;;;5094106;28;20541;-75
2021/07/01 04:36:24;;;;;;;14.87;10.23;;;10.40;99.90;;;;;;5099716;28;20248;-74
2021/07/01 04:38:52;;;;;;;13.93;10.43;;;10.50;99.90;;;;;;5093615;28;20236;-75
2021/07/01 04:41:20;;;;;;;13.53;9.40;;;10.50;99.90;;;;;;5109355;28;20238;-75
2021/07/01 04:43:47;;;;;;;13.03;9.37;;;10.50;99.90;;;;;;5103916;28;20213;-75
2021/07/01 04:46:14;;;;;;;13.87;9.50;;;10.50;99.90;;;;;;5093964;28;20236;-75
2021/07/01 04:48:43;;;;;;;14.70;10.30;;;10.60;99.90;;;;;;5095040;28;20232;-75
2021/07/01 04:51:11;;;;;;;15.57;10.30;;;10.60;99.90;;;;;;5091920;28;20199;-75
2021/07/01 04:53:39;;;;;;;12.10;10.20;;;10.70;99.90;;;;;;5097280;28;20238;-76
2021/07/01 04:56:07;;;;;;;15.00;11.17;;;10.70;99.90;;;;;;5107281;28;20276;-75
2021/07/01 04:58:33;;;;;;;18.63;11.60;;;10.80;99.90;;;;;;5101544;28;20602;-75
2021/07/01 05:01:00;;;;;;;20.67;12.63;;;10.80;99.90;;;;;;5097613;28;20267;-75
2021/07/01 05:03:27;;;;;;;26.47;13.30;;;10.90;99.90;;;;;;5092541;28;20681;-76
2021/07/01 05:05:56;;;;;;;30.33;13.17;;;11.00;99.90;;;;;;5095400;28;20244;-76
2021/07/01 05:08:23;;;;;;;26.70;12.33;;;11.10;99.90;;;;;;5104085;28;20294;-75
2021/07/01 05:10:50;;;;;;;29.07;11.90;;;11.00;99.90;;;;;;5099922;28;20601;-76
2021/07/01 05:13:17;;;;;;;29.83;12.37;;;11.00;99.90;;;;;;5098327;28;20391;-76
2021/07/01 05:15:43;;;;;;;23.70;11.67;;;11.00;99.90;;;;;;5108242;28;20233;-76
2021/07/01 05:18:10;;;;;;;24.90;12.60;;;11.10;99.90;;;;;;5093076;28;20640;-75
2021/07/01 05:20:37;;;;;;;24.90;12.10;;;11.20;99.90;;;;;;5108767;28;20293;-75
2021/07/01 05:23:06;;;;;;;17.60;12.20;;;11.10;99.90;;;;;;5093201;28;20233;-77
2021/07/01 05:25:33;;;;;;;18.57;11.43;;;11.30;99.90;;;;;;5097615;28;20237;-75
2021/07/01 05:28:00;;;;;;;19.90;11.50;;;11.50;99.90;;;;;;5104147;28;20230;-75
2021/07/01 05:30:26;;;;;;;19.70;11.30;;;11.50;99.90;;;;;;5104513;28;20662;-75
2021/07/01 05:32:53;;;;;;;19.67;11.73;;;11.50;99.90;;;;;;5100606;28;20222;-75
2021/07/01 05:35:20;;;;;;;21.50;12.40;;;11.70;99.90;;;;;;5107213;28;20299;-75
2021/07/01 05:37:47;;;;;;;19.20;12.40;;;11.90;99.90;;;;;;5098647;28;20194;-75
2021/07/01 05:40:18;;;;;;;20.93;13.03;;;12.20;99.90;;;;;;5100708;28;20301;-74
2021/07/01 05:42:45;;;;;;;27.10;11.93;;;12.70;99.90;;;;;;5110590;28;20210;-75
2021/07/01 05:45:12;;;;;;;16.50;11.07;;;13.20;99.90;;;;;;5110950;28;20650;-75
2021/07/01 05:47:40;;;;;;;14.63;11.10;;;13.50;99.90;;;;;;5098631;28;20674;-74
2021/07/01 05:50:10;;;;;;;12.10;10.10;;;13.90;99.90;;;;;;5101935;28;20195;-75
2021/07/01 05:52:39;;;;;;;12.47;9.80;;;14.10;99.90;;;;;;4742201;28;10000428;-75
2021/07/01 05:55:08;;;;;;;10.30;9.10;;;13.70;99.90;;;;;;5092909;28;20194;-75
2021/07/01 05:57:36;;;;;;;11.27;9.33;;;14.00;99.90;;;;;;5102467;28;20308;-75
2021/07/01 06:00:04;;;;;;;19.93;8.57;;;14.40;99.90;;;;;;5099972;28;20312;-75
2021/07/01 06:02:31;;;;;;;18.53;8.40;;;14.60;99.90;;;;;;5103500;28;20236;-75
2021/07/01 06:05:04;;;;;;;11.37;9.27;;;14.80;99.90;;;;;;5101716;28;20233;-75
2021/07/01 06:07:31;;;;;;;17.33;9.97;;;14.70;99.90;;;;;;5101405;28;20213;-75
2021/07/01 06:10:01;;;;;;;10.60;9.47;;;15.00;99.90;;;;;;5107757;28;20281;-75
2021/07/01 06:12:32;;;;;;;10.90;9.67;;;15.80;99.90;;;;;;5111080;28;20258;-75
2021/07/01 06:15:01;;;;;;;9.97;8.97;;;16.50;99.90;;;;;;5105966;28;20229;-75
2021/07/01 06:17:30;;;;;;;9.43;8.47;;;17.00;99.90;;;;;;5097827;28;20271;-75
2021/07/01 06:19:57;;;;;;;9.57;8.52;;;17.50;99.90;;;;;;5108476;28;20708;-75
2021/07/01 06:22:24;;;;;;;10.45;8.73;;;18.70;99.90;;;;;;5110834;28;20256;-75
2021/07/01 06:24:55;;;;;;;8.98;8.18;;;19.30;99.90;;;;;;5097260;28;20222;-76
2021/07/01 06:27:28;;;;;;;10.43;9.32;;;19.10;99.90;;;;;;5104972;28;20197;-76
2021/07/01 06:29:55;;;;;;;9.73;8.73;;;19.40;99.90;;;;;;5110614;28;20193;-76
2021/07/01 06:32:23;;;;;;;8.77;7.97;;;19.80;99.90;;;;;;5096212;28;20687;-76
2021/07/01 06:34:50;;;;;;;11.10;8.85;;;20.80;99.90;;;;;;5095666;28;20263;-76
2021/07/01 06:37:18;;;;;;;9.50;8.50;;;21.30;99.90;;;;;;5091925;28;20931;-76
2021/07/01 06:39:48;;;;;;;9.55;8.63;;;21.50;99.90;;;;;;5096656;28;20214;-76
2021/07/01 06:42:19;;;;;;;10.57;9.00;;;20.90;99.90;;;;;;5104059;28;20209;-76
2021/07/01 06:44:47;;;;;;;11.07;9.98;;;20.30;99.90;;;;;;5099476;28;20222;-76
2021/07/01 06:47:15;;;;;;;10.68;9.57;;;20.40;99.90;;;;;;5104520;28;20280;-76
2021/07/01 06:49:45;;;;;;;11.15;10.05;;;20.80;99.90;;;;;;5098983;28;20277;-75
2021/07/01 06:52:14;;;;;;;11.38;9.63;;;22.10;99.90;;;;;;5102688;28;20820;-77
2021/07/01 06:54:41;;;;;;;11.93;9.77;;;21.80;99.90;;;;;;5096797;28;20229;-77
2021/07/01 06:57:09;;;;;;;13.40;10.63;;;21.40;99.90;;;;;;5097651;28;20204;-77
2021/07/01 06:59:45;;;;;;;11.88;10.40;;;21.60;99.90;;;;;;5091885;28;20217;-77
2021/07/01 07:02:14;;;;;;;11.18;10.07;;;22.20;99.90;;;;;;5096766;28;20193;-77
2021/07/01 07:04:44;;;;;;;11.27;10.18;;;23.90;99.90;;;;;;5095775;28;20202;-75
2021/07/01 07:07:12;;;;;;;15.18;11.80;;;23.90;99.90;;;;;;5099043;28;20604;-75
2021/07/01 07:09:39;;;;;;;13.32;11.93;;;23.60;99.90;;;;;;5097067;28;20222;-75
2021/07/01 07:12:07;;;;;;;11.82;10.73;;;23.70;99.90;;;;;;5095524;28;20213;-75
2021/07/01 07:14:34;;;;;;;12.82;11.27;;;24.20;99.90;;;;;;5099475;28;20317;-76
2021/07/01 07:17:03;;;;;;;19.25;12.25;;;24.90;99.90;;;;;;5093688;28;20263;-76
2021/07/01 07:19:33;;;;;;;13.68;12.25;;;25.40;99.90;;;;;;5093575;28;20205;-75
2021/07/01 07:22:04;;;;;;;12.90;11.75;;;24.70;99.90;;;;;;5098605;28;20256;-75
2021/07/01 07:24:36;;;;;;;13.43;11.95;;;24.10;99.90;;;;;;5106367;28;20280;-76
2021/07/01 07:27:04;;;;;;;14.10;12.20;;;24.50;99.90;;;;;;5101041;28;20281;-75
2021/07/01 07:29:34;;;;;;;14.13;11.73;;;23.80;99.90;;;;;;5103545;28;20229;-75
2021/07/01 07:32:04;;;;;;;14.50;12.18;;;24.50;99.90;;;;;;5101194;28;20218;-75
2021/07/01 07:34:31;;;;;;;14.63;12.30;;;24.80;99.90;;;;;;5103607;28;20210;-75
2021/07/01 07:36:58;;;;;;;12.90;11.70;;;24.60;99.90;;;;;;5098809;28;20204;-76
2021/07/01 07:39:28;;;;;;;13.07;11.73;;;24.80;99.90;;;;;;5099578;28;20285;-75
2021/07/01 07:41:56;;;;;;;12.90;11.65;;;24.70;99.90;;;;;;5098143;28;20874;-75
2021/07/01 07:44:23;;;;;;;11.70;10.60;;;25.80;99.90;;;;;;5101429;28;20229;-75
2021/07/01 07:46:50;;;;;;;11.13;10.13;;;26.20;99.90;;;;;;5105180;28;20229;-75
2021/07/01 07:49:19;;;;;;;12.57;11.27;;;27.40;99.90;;;;;;5100859;28;20202;-75
2021/07/01 07:51:51;;;;;;;12.07;10.80;;;26.70;99.90;;;;;;5104468;28;20203;-75
2021/07/01 07:54:23;;;;;;;11.45;10.35;;;26.60;99.90;;;;;;5101286;28;20625;-75
2021/07/01 07:56:55;;;;;;;12.57;10.75;;;26.70;99.90;;;;;;5097668;28;20194;-75
2021/07/01 07:59:26;;;;;;;13.57;11.32;;;26.60;99.90;;;;;;5101968;28;20423;-77
2021/07/01 08:01:53;;;;;;;13.02;10.38;;;26.20;99.90;;;;;;5108682;28;20257;-77
2021/07/01 08:04:24;;;;;;;10.52;9.43;;;25.90;99.90;;;;;;5091196;28;20277;-75
2021/07/01 08:06:54;;;;;;;11.23;9.93;;;26.00;99.90;;;;;;5093566;28;20203;-76
2021/07/01 08:09:26;;;;;;;10.23;9.15;;;27.70;99.90;;;;;;5103878;28;20559;-76
2021/07/01 08:11:55;;;;;;;10.27;7.90;;;28.50;99.90;;;;;;5102096;28;20636;-76
2021/07/01 08:14:23;;;;;;;11.02;7.75;;;28.30;99.90;;;;;;5101778;28;20610;-75
2021/07/01 08:16:51;;;;;;;8.77;7.93;;;27.20;99.90;;;;;;5103871;28;20194;-76
2021/07/01 08:19:18;;;;;;;7.88;6.78;;;25.80;99.90;;;;;;5099413;28;20202;-76
2021/07/01 08:21:46;;;;;;;7.63;6.82;;;26.20;99.90;;;;;;5104964;28;20309;-76
2021/07/01 08:24:13;;;;;;;7.15;6.45;;;26.90;99.90;;;;;;5097920;28;20244;-76
2021/07/01 08:26:40;;;;;;;6.80;6.10;;;27.90;99.90;;;;;;5098297;28;20281;-76
2021/07/01 08:29:11;;;;;;;5.82;5.32;;;28.90;99.90;;;;;;5093429;28;20282;-76
2021/07/01 08:31:46;;;;;;;5.53;4.10;;;29.60;99.90;;;;;;5095057;28;20277;-77
2021/07/01 08:34:14;;;;;;;4.32;3.92;;;30.50;99.90;;;;;;5098515;28;20251;-76
2021/07/01 08:36:46;;;;;;;5.03;4.28;;;30.30;99.90;;;;;;5096606;28;20281;-76
2021/07/01 08:39:13;;;;;;;5.80;5.18;;;30.80;99.90;;;;;;5095998;28;20285;-77
2021/07/01 08:41:43;;;;;;;4.47;4.07;;;30.10;99.90;;;;;;5105810;28;20317;-76
2021/07/01 08:44:17;;;;;;;4.60;4.20;;;29.20;99.90;;;;;;5108570;28;20274;-76
2021/07/01 08:46:48;;;;;;;5.30;4.80;;;29.40;99.90;;;;;;5100184;28;20283;-76
2021/07/01 08:49:47;;;;;;;5.78;5.28;;;29.20;99.90;;;;;;5097072;28;20229;-76
2021/07/01 08:52:16;;;;;;;6.93;6.03;;;28.70;99.90;;;;;;5098343;28;20221;-77
2021/07/01 08:54:44;;;;;;;6.60;5.97;;;29.10;99.90;;;;;;5097825;28;20277;-76
2021/07/01 08:57:14;;;;;;;6.65;5.95;;;28.70;99.90;;;;;;5103485;28;20200;-76
2021/07/01 08:59:44;;;;;;;7.70;6.90;;;28.90;99.90;;;;;;5101594;28;20620;-76
2021/07/01 09:02:13;;;;;;;7.65;6.50;;;28.50;99.90;;;;;;5099471;28;20215;-76
2021/07/01 09:04:49;;;;;;;9.57;7.63;;;29.60;99.90;;;;;;5101385;28;20277;-76
2021/07/01 09:07:21;;;;;;;12.35;7.18;;;29.40;99.90;;;;;;5098057;28;20631;-77
2021/07/01 09:09:54;;;;;;;7.53;6.82;;;30.50;99.90;;;;;;5107811;28;20246;-77
2021/07/01 09:12:24;;;;;;;7.07;6.38;;;30.50;99.90;;;;;;5101331;28;20194;-77
2021/07/01 09:14:57;;;;;;;7.60;6.70;;;29.80;99.90;;;;;;5106232;28;20232;-76
2021/07/01 09:17:27;;;;;;;7.03;6.35;;;30.00;99.90;;;;;;5100923;28;20207;-76
2021/07/01 09:19:55;;;;;;;6.40;5.78;;;30.70;99.90;;;;;;5100243;28;20209;-76
2021/07/01 09:22:24;;;;;;;6.85;6.15;;;31.70;99.90;;;;;;5110022;28;20669;-76
2021/07/01 09:24:52;;;;;;;6.05;5.45;;;30.90;99.90;;;;;;5099993;28;20221;-76
2021/07/01 09:27:20;;;;;;;8.20;6.50;;;30.80;99.90;;;;;;5100836;28;20280;-76
2021/07/01 09:29:50;;;;;;;7.20;6.50;;;29.70;99.90;;;;;;5111298;28;20225;-76
2021/07/01 09:32:20;;;;;;;7.55;6.28;;;29.90;99.90;;;;;;5101285;28;20623;-76
2021/07/01 09:34:48;;;;;;;6.85;6.15;;;30.00;99.90;;;;;;5109685;28;20218;-77
2021/07/01 09:37:16;;;;;;;7.20;6.05;;;30.20;99.90;;;;;;5105898;28;20271;-76
2021/07/01 09:39:44;;;;;;;7.00;6.30;;;30.40;99.90;;;;;;5102847;28;20697;-76
2021/07/01 09:42:11;;;;;;;6.57;5.78;;;30.50;99.90;;;;;;5100667;28;20728;-76
2021/07/01 09:44:40;;;;;;;7.13;5.65;;;29.90;99.90;;;;;;5098466;28;20301;-76
2021/07/01 09:47:10;;;;;;;6.75;5.72;;;28.50;99.90;;;;;;5100727;28;20288;-77
2021/07/01 09:49:40;;;;;;;6.50;5.82;;;30.00;99.90;;;;;;5099477;28;20205;-76
2021/07/01 09:52:10;;;;;;;6.00;5.40;;;29.60;99.90;;;;;;5105777;28;20275;-76
2021/07/01 09:54:39;;;;;;;6.85;5.60;;;29.90;99.90;;;;;;5106490;28;20201;-76
2021/07/01 09:57:12;;;;;;;6.25;5.65;;;29.80;99.90;;;;;;5093740;28;20285;-77
2021/07/01 09:59:47;;;;;;;6.85;5.85;;;28.50;99.90;;;;;;5105624;28;20234;-76
2021/07/01 10:02:19;;;;;;;6.13;5.53;;;27.20;99.90;;;;;;5107080;28;20249;-77
2021/07/01 10:04:47;;;;;;;6.93;5.53;;;28.20;99.90;;;;;;5097609;28;20572;-77
2021/07/01 10:07:17;;;;;;;6.53;5.80;;;29.80;99.90;;;;;;5101120;28;20281;-77
2021/07/01 10:09:46;;;;;;;5.65;5.15;;;30.10;99.90;;;;;;5096992;28;20582;-77
2021/07/01 10:12:19;;;;;;;6.43;5.40;;;30.30;99.90;;;;;;5092520;28;20196;-78
2021/07/01 10:14:47;;;;;;;5.72;4.85;;;31.60;99.90;;;;;;5098616;28;20285;-76
2021/07/01 10:17:15;;;;;;;6.10;5.50;;;32.70;99.90;;;;;;5076237;28;20293;-77
2021/07/01 10:19:44;;;;;;;5.32;4.82;;;31.60;99.90;;;;;;5098669;28;20280;-77
2021/07/01 10:22:13;;;;;;;5.60;5.10;;;29.10;99.90;;;;;;5098997;28;20631;-78
2021/07/01 10:24:55;;;;;;;7.07;6.22;;;27.90;99.90;;;;;;5110477;28;20218;-78
2021/07/01 10:27:30;;;;;;;5.60;5.10;;;27.60;99.90;;;;;;5094738;28;20298;-77
2021/07/01 10:29:59;;;;;;;6.22;5.05;;;29.10;99.90;;;;;;5099619;28;20526;-78
2021/07/01 10:32:40;;;;;;;6.22;5.40;;;28.80;99.90;;;;;;5104236;28;20198;-78
2021/07/01 10:35:24;;;;;;;7.85;6.78;;;30.60;99.90;;;;;;5095779;28;20194;-78
2021/07/01 10:38:04;;;;;;;15.35;13.80;;;32.10;99.90;;;;;;5106439;28;20697;-78
2021/07/01 10:40:32;;;;;;;12.50;11.27;;;31.50;99.90;;;;;;5100568;28;20251;-77
2021/07/01 10:42:59;;;;;;;6.80;4.90;;;33.10;99.90;;;;;;5102391;28;20326;-78
2021/07/01 10:45:27;;;;;;;7.43;6.40;;;33.20;99.90;;;;;;5105940;28;20285;-78
2021/07/01 10:47:54;;;;;;;7.00;6.40;;;33.60;99.90;;;;;;5093714;28;20230;-78
2021/07/01 10:50:30;;;;;;;13.10;11.93;;;33.90;99.90;;;;;;5107504;28;20208;-77
2021/07/01 10:52:59;;;;;;;5.78;5.28;;;32.20;99.90;;;;;;5104987;28;20236;-77
2021/07/01 10:55:26;;;;;;;5.50;5.05;;;31.40;99.90;;;;;;5089507;28;20293;-77
2021/07/01 10:57:57;;;;;;;6.05;5.45;;;30.20;99.90;;;;;;5089653;28;20250;-80
2021/07/01 11:00:40;;;;;;;8.32;7.63;;;28.70;99.90;;;;;;5091224;28;20198;-78
2021/07/01 11:03:13;;;;;;;8.20;6.78;;;27.30;99.90;;;;;;5105332;28;20267;-78
2021/07/01 11:05:40;;;;;;;5.25;4.75;;;26.90;99.90;;;;;;5095774;28;20203;-77
2021/07/01 11:08:09;;;;;;;4.85;4.32;;;28.80;99.90;;;;;;5106515;28;20296;-78
2021/07/01 11:10:38;;;;;;;5.20;4.75;;;31.60;99.90;;;;;;5095145;28;20236;-78
2021/07/01 11:13:09;;;;;;;4.38;4.07;;;32.40;99.90;;;;;;5100841;28;20216;-78
2021/07/01 11:16:09;;;;;;;5.47;4.97;;;33.80;99.90;;;;;;5108559;28;20190;-78
2021/07/01 11:18:39;;;;;;;4.63;4.00;;;32.30;99.30;;;;;;5102714;28;20190;-78
2021/07/01 11:21:07;;;;;;;5.85;4.47;;;32.70;99.90;;;;;;5097135;28;20243;-78
2021/07/01 11:23:37;;;;;;;4.47;3.63;;;32.50;96.90;;;;;;5106234;28;20198;-78
2021/07/01 11:26:04;;;;;;;4.00;3.65;;;33.30;98.30;;;;;;5110012;28;20623;-78
2021/07/01 11:28:31;;;;;;;4.95;4.35;;;32.30;99.90;;;;;;5099879;28;20239;-77
2021/07/01 11:31:01;;;;;;;5.90;4.85;;;29.70;99.90;;;;;;5098869;28;20195;-78
2021/07/01 11:33:30;;;;;;;5.15;4.70;;;28.30;99.90;;;;;;5105326;28;20282;-78
2021/07/01 11:36:11;;;;;;;5.15;4.72;;;27.10;99.90;;;;;;5099673;28;20225;-77
2021/07/01 11:38:40;;;;;;;5.07;4.68;;;26.00;99.90;;;;;;5094372;28;20205;-77
2021/07/01 11:41:08;;;;;;;4.70;4.15;;;27.50;99.90;;;;;;5098507;28;20229;-77
2021/07/01 11:43:36;;;;;;;5.40;3.65;;;28.90;99.90;;;;;;5104141;28;20221;-77
2021/07/01 11:46:04;;;;;;;4.47;4.07;;;29.50;99.90;;;;;;5099489;28;20226;-77
2021/07/01 11:48:33;;;;;;;5.55;4.03;;;28.10;99.90;;;;;;5092686;28;20226;-77
2021/07/01 11:51:01;;;;;;;4.43;4.03;;;29.00;99.90;;;;;;5102951;28;20719;-77
2021/07/01 11:53:29;;;;;;;4.78;4.38;;;29.40;99.90;;;;;;5103913;28;20273;-77
2021/07/01 11:56:00;;;;;;;4.60;3.90;;;32.10;99.90;;;;;;5099393;28;20299;-77
2021/07/01 11:58:28;;;;;;;4.20;3.80;;;32.70;99.90;;;;;;5097999;28;20229;-78
2021/07/01 12:00:56;;;;;;;4.93;3.63;;;32.40;99.90;;;;;;5101149;28;20233;-78
2021/07/01 12:03:23;;;;;;;3.63;3.33;;;33.30;99.90;;;;;;5091575;28;20245;-78
2021/07/01 12:05:52;;;;;;;4.47;3.60;;;32.20;99.90;;;;;;5096977;28;20289;-78
2021/07/01 12:08:19;;;;;;;3.75;3.35;;;32.80;99.90;;;;;;5102611;28;20376;-78
2021/07/01 12:10:46;;;;;;;5.28;4.18;;;32.40;99.90;;;;;;5096909;28;20277;-77
2021/07/01 12:13:45;;;;;;;5.15;4.20;;;31.10;99.90;;;;;;5102504;28;20706;-77
2021/07/01 12:16:15;;;;;;;3.90;3.50;;;29.00;99.90;;;;;;5093270;28;20255;-77
2021/07/01 12:18:50;;;;;;;4.30;3.90;;;28.80;99.90;;;;;;5096212;28;20245;-77
2021/07/01 12:21:18;;;;;;;4.82;4.20;;;30.00;99.90;;;;;;5104289;28;20272;-77
2021/07/01 12:23:45;;;;;;;4.30;3.90;;;31.20;99.90;;;;;;5100920;28;20226;-77
2021/07/01 12:26:34;;;;;;;4.35;3.95;;;30.00;99.90;;;;;;5097793;28;20611;-77
2021/07/01 12:29:04;;;;;;;4.93;4.00;;;29.20;99.90;;;;;;5093557;28;20218;-77
2021/07/01 12:31:32;;;;;;;4.55;4.07;;;28.10;99.90;;;;;;5105692;28;20225;-77
2021/07/01 12:34:00;;;;;;;5.72;3.80;;;27.00;99.90;;;;;;5109800;28;20729;-77
2021/07/01 12:36:29;;;;;;;4.53;3.90;;;26.80;99.90;;;;;;5105517;28;20226;-77
2021/07/01 12:39:35;;;;;;;4.85;4.32;;;26.80;99.90;;;;;;5097282;28;20244;-77
2021/07/01 12:42:22;;;;;;;3.75;3.45;;;28.70;99.90;;;;;;5099771;28;20629;-77
2021/07/01 12:44:51;;;;;;;3.72;3.42;;;31.60;99.90;;;;;;5107766;28;20203;-77